Latest Weather Observations for Karratha

IDW60801

Issued at 9:05 pm WST Friday 18 April 2014 (issued every 30 minutes, with the page automatically refreshed every 10 minutes)

About weather observations | Map of weather stations | Latest weather observations for WA | Other Formats
Station Details ID: 004083 Name: KARRATHA AERO Lat: -20.71 Lon: 116.77 Height: 5.3 m
Data from the previous 72 hours. | See also: Recent months at Karratha
Date/Time
WST
Temp
°C
App
Temp
°C
Dew
Point
Rel
Hum
%
Delta-T
°C
Wind Press
QNH
hPa
Press
MSL
hPa
Rain
since 9 am
mm
Dir
 
Spd
km/h
Gust
km/h
Spd
kts
Gust
kts
18/09:00pm 25.0 25.3 15.0 53 6.0 SSW 7 7 4 4 1014.7 1014.7 0.0
18/08:30pm 27.1 29.3 16.4 52 6.6 NNE 0 0 0 0 1014.4 - 0.0
18/08:00pm 27.9 28.9 16.8 50 6.9 N 7 9 4 5 1014.1 - 0.0
18/07:30pm 27.1 27.8 17.0 54 6.3 NNE 9 11 5 6 1013.7 - 0.0
18/07:00pm 28.3 29.6 17.5 52 6.8 N 7 11 4 6 1013.3 - 0.0
18/06:30pm 28.8 29.9 18.0 52 6.9 N 9 11 5 6 1013.1 - 0.0
18/06:00pm 29.2 29.8 17.7 50 7.3 NNE 11 15 6 8 1012.8 1012.8 0.0
18/05:30pm 30.3 29.6 17.4 46 8.2 NNE 17 22 9 12 1012.5 - 0.0
18/05:00pm 31.5 29.5 15.0 36 10.1 NNE 19 24 10 13 1012.2 - 0.0
18/04:30pm 31.9 29.5 14.5 34 10.6 NNE 20 24 11 13 1012.0 - 0.0
18/04:00pm 32.3 30.2 15.3 35 10.5 NNE 20 26 11 14 1012.0 - 0.0
18/03:30pm 32.3 30.0 15.7 36 10.3 NNE 22 28 12 15 1011.8 - 0.0
18/03:00pm 32.5 30.3 15.9 36 10.4 NNE 22 28 12 15 1011.9 1011.9 0.0
18/02:30pm 32.7 30.1 14.8 34 11.0 NNE 22 30 12 16 1011.9 - 0.0
18/02:00pm 32.3 29.9 14.4 33 10.9 NNE 20 26 11 14 1012.1 - 0.0
18/01:30pm 33.5 30.4 13.5 29 12.1 NE 22 28 12 15 1012.5 - 0.0
18/01:00pm 33.1 28.7 11.6 27 12.6 NE 26 32 14 17 1012.8 - 0.0
18/12:30pm 33.9 30.1 9.9 23 13.8 NE 20 28 11 15 1013.2 - 0.0
18/12:00pm 32.9 29.9 12.5 29 12.1 NE 20 30 11 16 1013.5 1013.5 0.0
18/11:30am 33.3 29.9 11.2 26 12.9 NE 20 30 11 16 1013.8 - 0.0
18/11:00am 32.9 29.6 9.7 24 13.2 NE 17 22 9 12 1014.1 - 0.0
18/10:30am 33.6 29.8 9.0 22 13.9 E 19 22 10 12 1014.4 - 0.0
18/10:00am 32.9 30.1 8.4 22 13.7 ENE 13 19 7 10 1014.6 - 0.0
18/09:30am 31.9 30.2 8.2 23 13.1 ENE 7 11 4 6 1014.6 - 0.0
18/09:00am 31.1 28.7 6.9 22 13.1 SE 9 19 5 10 1014.7 1014.7 0.0
18/08:30am 28.7 26.2 8.4 28 11.1 SSE 11 13 6 7 1014.7 - 0.0
18/08:00am 26.5 23.3 8.5 32 9.7 S 15 19 8 10 1014.5 - 0.0
18/07:30am 24.3 21.1 9.8 40 7.9 S 17 19 9 10 1014.3 - 0.0
18/07:00am 22.1 18.7 10.6 48 6.3 S 19 22 10 12 1014.3 - 0.0
18/06:30am 21.4 18.5 10.9 51 5.8 S 17 20 9 11 1014.2 - 0.0
18/06:00am 20.0 18.0 11.5 58 4.7 S 13 15 7 8 1014.0 1014.0 0.0
18/05:30am 19.6 18.2 12.1 62 4.2 S 11 13 6 7 1013.9 - 0.0
18/05:00am 20.3 18.7 12.8 62 4.2 S 13 17 7 9 1013.7 - 0.0
18/04:30am 20.2 18.8 13.4 65 3.9 S 13 15 7 8 1013.6 - 0.0
18/04:00am 20.9 19.0 14.1 65 3.9 S 17 19 9 10 1013.5 - 0.0
18/03:30am 20.7 19.3 14.6 68 3.6 S 15 17 8 9 1013.5 - 0.0
18/03:00am 21.1 20.0 15.2 69 3.5 S 15 17 8 9 1013.5 1013.5 0.0
18/02:30am 21.1 20.0 15.2 69 3.5 S 15 17 8 9 1013.8 - 0.0
18/02:00am 21.6 20.6 15.7 69 3.5 S 15 17 8 9 1014.0 - 0.0
18/01:30am 21.5 21.4 16.9 75 2.8 S 13 17 7 9 1014.2 - 0.0
18/01:00am 21.5 22.4 17.5 78 2.5 S 9 13 5 7 1014.5 - 0.0
18/12:30am 21.8 22.6 18.2 80 2.2 S 11 13 6 7 1014.8 - 0.0
18/12:00am 22.0 22.9 18.4 80 2.3 S 11 13 6 7 1014.9 1014.9 0.0
 
Date/Time
WST
Temp
°C
App
Temp
°C
Dew
Point
Rel
Hum
%
Delta-T
°C
Wind Press
QNH
hPa
Press
MSL
hPa
Rain
since 9 am
mm
Dir
 
Spd
km/h
Gust
km/h
Spd
kts
Gust
kts
17/11:30pm 22.6 23.7 18.8 79 2.4 SW 11 13 6 7 1014.9 - 0.0
17/11:00pm 23.1 25.7 19.3 79 2.4 SW 4 9 2 5 1014.9 - 0.0
17/10:30pm 23.2 24.8 19.1 78 2.6 S 9 11 5 6 1015.0 - 0.0
17/10:00pm 23.5 26.3 19.6 79 2.5 SE 4 7 2 4 1014.9 - 0.0
17/09:30pm 23.9 26.2 20.6 82 2.2 SSE 9 11 5 6 1015.0 - 0.0
17/09:00pm 25.0 29.3 21.9 83 2.1 S 2 7 1 4 1014.8 1014.8 0.0
17/08:30pm 24.8 28.5 21.5 82 2.2 SSE 4 7 2 4 1014.4 - 0.0
17/08:00pm 25.3 28.2 21.8 81 2.3 ENE 9 11 5 6 1013.9 - 0.0
17/07:30pm 25.5 27.3 21.2 77 2.8 ENE 13 13 7 7 1013.5 - 0.0
17/07:00pm 26.7 28.3 20.8 70 3.9 NE 13 15 7 8 1013.2 - 0.0
17/06:30pm 27.2 28.2 19.5 62 5.0 NE 13 17 7 9 1012.8 - 0.0
17/06:00pm 28.5 28.6 19.1 56 6.1 NE 17 22 9 12 1012.5 1012.5 0.0
17/05:30pm 29.5 30.0 20.1 57 6.2 NNE 17 20 9 11 1012.3 - 0.0
17/05:00pm 30.3 29.8 18.7 50 7.5 NNE 19 24 10 13 1012.0 - 0.0
17/04:30pm 30.9 29.1 16.1 41 9.2 NNE 20 24 11 13 1011.8 - 0.0
17/04:00pm 32.1 29.3 14.3 34 10.9 NNE 22 28 12 15 1011.6 - 0.0
17/03:30pm 32.6 29.3 12.8 30 11.8 NNE 22 28 12 15 1011.6 - 0.0
17/03:00pm 33.3 29.7 10.6 25 13.2 NNE 20 24 11 13 1011.7 1011.7 0.0
17/02:30pm 33.6 29.5 10.2 24 13.5 NNE 22 30 12 16 1011.8 - 0.0
17/02:00pm 33.8 30.0 11.0 25 13.3 NE 22 30 12 16 1012.1 - 0.0
17/01:30pm 33.0 29.1 12.1 28 12.4 NE 24 33 13 18 1012.5 - 0.0
17/01:00pm 32.5 28.6 13.2 31 11.6 NE 26 32 14 17 1012.8 - 0.0
17/12:30pm 32.8 27.9 12.4 29 12.1 NE 30 37 16 20 1013.1 - 0.0
17/12:00pm 33.1 27.7 11.0 26 12.9 ENE 30 39 16 21 1013.7 1013.7 0.0
17/11:30am 33.6 27.4 10.2 24 13.5 ENE 33 41 18 22 1014.0 - 0.0
17/11:00am 32.8 29.4 12.4 29 12.1 NE 22 30 12 16 1014.3 - 0.0
17/10:30am 33.4 28.6 7.4 20 14.3 E 22 28 12 15 1014.6 - 0.0
17/10:00am 33.3 28.5 8.7 22 13.8 E 24 30 13 16 1014.8 - 0.0
17/09:30am 32.1 28.1 8.4 23 13.2 E 19 26 10 14 1015.1 - 0.0
17/09:00am 30.8 27.5 9.6 27 11.9 SE 17 20 9 11 1015.1 1015.1 0.0
17/08:30am 28.4 26.1 13.1 39 9.0 S 17 20 9 11 1015.0 - 0.0
17/08:00am 26.2 25.0 17.0 57 5.7 S 19 24 10 13 1014.8 - 0.0
17/07:30am 23.9 25.9 17.9 69 3.8 SE 4 15 2 8 1014.6 - 0.0
17/07:00am 21.3 21.4 16.5 74 2.9 SSW 11 15 6 8 1014.3 - 0.0
17/06:30am 20.2 19.7 16.0 77 2.5 S 13 15 7 8 1014.1 - 0.0
17/06:00am 20.2 19.0 16.0 77 2.5 S 17 19 9 10 1013.9 1013.9 0.0
17/05:30am 19.7 19.2 15.8 78 2.3 S 13 15 7 8 1014.0 - 0.0
17/05:00am 20.3 19.5 16.1 77 2.5 S 15 17 8 9 1013.8 - 0.0
17/04:30am 20.0 18.8 16.2 79 2.3 S 17 19 9 10 1013.7 - 0.0
17/04:00am 20.2 19.7 16.0 77 2.5 S 13 15 7 8 1013.6 - 0.0
17/03:30am 20.9 20.2 16.5 76 2.7 S 15 17 8 9 1013.7 - 0.0
17/03:00am 21.2 20.6 16.6 75 2.8 S 15 17 8 9 1013.7 1013.7 0.0
17/02:30am 21.4 21.2 16.6 74 2.9 S 13 15 7 8 1013.9 - 0.0
17/02:00am 21.5 21.3 16.7 74 2.9 S 13 15 7 8 1014.0 - 0.0
17/01:30am 21.3 21.0 16.5 74 2.9 S 13 15 7 8 1014.1 - 0.0
17/01:00am 21.5 21.3 16.7 74 2.9 S 13 15 7 8 1014.2 - 0.0
17/12:30am 21.8 22.7 16.7 73 3.1 SSW 7 11 4 6 1014.2 - 0.0
17/12:00am 21.6 22.5 16.1 71 3.3 S 6 9 3 5 1014.4 1014.4 0.0
 
Date/Time
WST
Temp
°C
App
Temp
°C
Dew
Point
Rel
Hum
%
Delta-T
°C
Wind Press
QNH
hPa
Press
MSL
hPa
Rain
since 9 am
mm
Dir
 
Spd
km/h
Gust
km/h
Spd
kts
Gust
kts
16/11:30pm 22.1 22.8 16.1 69 3.6 S 7 9 4 5 1014.3 - 0.0
16/11:00pm 22.4 22.5 16.4 69 3.6 S 11 15 6 8 1014.4 - 0.0
16/10:30pm 23.3 24.8 17.5 70 3.6 SSW 6 9 3 5 1014.5 - 0.0
16/10:00pm 23.1 24.3 17.3 70 3.6 S 7 9 4 5 1014.5 - 0.0
16/09:30pm 23.3 24.0 17.1 68 3.8 S 9 11 5 6 1014.3 - 0.0
16/09:00pm 24.2 24.7 17.4 65 4.2 SSW 11 15 6 8 1014.0 1014.0 0.0
16/08:30pm 24.8 26.4 18.3 67 4.1 SSW 7 9 4 5 1013.8 - 0.0
16/08:00pm 25.7 28.7 18.4 64 4.6 CALM 0 0 0 0 1013.3 - 0.0
16/07:30pm 26.1 28.7 19.2 65 4.4 NE 4 6 2 3 1012.9 - 0.0
16/07:00pm 26.4 27.3 18.5 62 5.0 NE 11 13 6 7 1012.4 - 0.0
16/06:30pm 27.2 27.2 18.2 58 5.7 NE 15 19 8 10 1012.1 - 0.0
16/06:00pm 28.0 27.8 18.4 56 6.1 NE 17 20 9 11 1011.9 1011.9 0.0
16/05:30pm 29.2 28.0 17.4 49 7.5 NNE 20 26 11 14 1011.6 - 0.0
16/05:00pm 29.9 28.0 16.7 45 8.3 NNE 22 28 12 15 1011.3 - 0.0
16/04:30pm 30.8 28.0 14.4 36 10.0 NNE 22 28 12 15 1011.2 - 0.0
16/04:00pm 30.6 27.9 16.6 43 8.8 NNE 26 32 14 17 1011.1 - 0.0
16/03:30pm 31.5 28.5 15.9 39 9.7 NNE 26 32 14 17 1011.2 - 0.0
16/03:00pm 31.7 27.7 13.0 32 11.2 NNE 26 32 14 17 1011.3 1011.3 0.0
16/02:30pm 32.4 29.4 13.6 32 11.4 NNE 22 28 12 15 1011.4 - 0.0
16/02:00pm 32.2 29.3 13.9 33 11.1 NNE 22 30 12 16 1011.6 - 0.0
16/01:30pm 32.3 28.3 13.0 31 11.5 NNE 26 32 14 17 1012.0 - 0.0
16/01:00pm 33.2 28.5 10.5 25 13.1 NE 26 33 14 18 1012.4 - 0.0
16/12:30pm 33.9 28.8 10.5 24 13.6 NE 28 35 15 19 1013.0 - 0.0
16/12:00pm 33.4 27.0 9.4 23 13.6 ENE 33 41 18 22 1013.4 1013.4 0.0
16/11:30am 33.8 27.7 8.4 21 14.2 ENE 30 35 16 19 1013.9 - 0.0
16/11:00am 32.3 28.3 13.0 31 11.5 NE 26 33 14 18 1014.4 - 0.0
16/10:30am 31.8 28.3 13.5 32 11.0 NE 24 39 13 21 1014.7 - 0.0
16/10:00am 33.5 27.5 5.1 17 15.1 E 26 35 14 19 1015.0 - 0.0
16/09:30am 32.4 26.7 5.0 18 14.4 E 24 30 13 16 1015.0 - 0.0
16/09:00am 30.8 25.3 6.0 21 13.2 ESE 24 33 13 18 1015.1 1015.1 0.0
16/08:30am 29.3 24.5 7.2 25 11.9 ESE 22 28 12 15 1015.1 - 0.0
16/08:00am 28.3 23.9 7.5 27 11.2 ESE 20 24 11 13 1015.0 - 0.0
16/07:30am 23.9 25.2 14.0 54 5.8 CALM 0 0 0 0 1014.9 - 0.0
16/07:00am 20.5 22.4 15.7 74 2.9 CALM 0 0 0 0 1014.9 - 0.0
16/06:30am 19.7 20.0 16.0 79 2.2 S 9 11 5 6 1014.6 - 0.0
16/06:00am 19.6 19.5 16.1 80 2.1 S 11 13 6 7 1014.5 1014.5 0.0
16/05:30am 19.5 21.2 16.2 81 2.0 SSE 2 7 1 4 1014.3 - 0.0
16/05:00am 20.2 19.6 16.6 80 2.2 S 15 17 8 9 1014.1 - 0.0
16/04:30am 20.1 19.9 16.7 81 2.1 S 13 13 7 7 1014.1 - 0.0
16/04:00am 20.7 21.0 17.1 80 2.2 S 11 13 6 7 1014.0 - 0.0
16/03:30am 21.0 21.8 17.4 80 2.2 S 9 11 5 6 1014.0 - 0.0
16/03:00am 22.6 22.7 18.4 77 2.6 S 15 17 8 9 1014.2 1014.2 0.0
16/02:30am 21.4 22.0 17.8 80 2.2 S 11 13 6 7 1014.3 - 0.0
16/02:00am 22.1 23.2 18.1 78 2.5 S 9 11 5 6 1014.5 - 0.0
16/01:30am 22.5 23.5 18.7 79 2.4 S 11 15 6 8 1014.6 - 0.0
16/01:00am 22.7 23.3 18.5 77 2.6 SSW 13 13 7 7 1014.8 - 0.0
16/12:30am 22.7 23.6 18.3 76 2.8 SSW 11 13 6 7 1014.9 - 0.0
16/12:00am 23.4 24.3 18.5 74 3.1 SSW 11 11 6 6 1015.0 1015.0 0.0
 
Date/Time
WST
Temp
°C
App
Temp
°C
Dew
Point
Rel
Hum
%
Delta-T
°C
Wind Press
QNH
hPa
Press
MSL
hPa
Rain
since 9 am
mm
Dir
 
Spd
km/h
Gust
km/h
Spd
kts
Gust
kts
15/11:30pm 23.1 23.4 18.0 73 3.2 S 13 13 7 7 1015.2 - 0.0
15/11:00pm 24.2 25.8 19.1 73 3.3 SSW 9 13 5 7 1015.3 - 0.0
15/10:30pm 24.4 25.3 19.2 73 3.3 SSW 13 15 7 8 1015.4 - 0.0
15/10:00pm 24.2 25.1 18.4 70 3.7 SSW 11 11 6 6 1015.3 - 0.0
15/09:30pm 24.6 25.5 18.3 68 4.0 SSW 11 11 6 6 1015.3 - 0.0

Other Formats:

Comma delimited format used in spreadsheet applications
http://www.bom.gov.au/fwo/IDW60801/IDW60801.95307.axf

JavaScript Object Notation format (JSON) in row-major order
http://www.bom.gov.au/fwo/IDW60801/IDW60801.95307.json